sensor_id;sensor_type;location;lat;lon;timestamp;pressure;altitude;pressure_sealevel;temperature;humidity
6030;BME280;3043;42.682;23.376;2022-07-29T00:00:16;95074.00;;;20.08;100.00
6030;BME280;3043;42.682;23.376;2022-07-29T00:02:41;95081.56;;;20.14;100.00
6030;BME280;3043;42.682;23.376;2022-07-29T00:05:08;95081.97;;;20.22;100.00
6030;BME280;3043;42.682;23.376;2022-07-29T00:07:33;95087.22;;;20.22;100.00
6030;BME280;3043;42.682;23.376;2022-07-29T00:09:59;95097.91;;;20.19;100.00
6030;BME280;3043;42.682;23.376;2022-07-29T00:12:25;95106.16;;;20.27;100.00
6030;BME280;3043;42.682;23.376;2022-07-29T00:14:51;95103.00;;;20.22;100.00
6030;BME280;3043;42.682;23.376;2022-07-29T00:17:16;95091.81;;;20.32;100.00
6030;BME280;3043;42.682;23.376;2022-07-29T00:19:42;95101.69;;;20.43;100.00
6030;BME280;3043;42.682;23.376;2022-07-29T00:22:07;95105.25;;;20.56;100.00
6030;BME280;3043;42.682;23.376;2022-07-29T00:24:32;95107.13;;;20.68;100.00
6030;BME280;3043;42.682;23.376;2022-07-29T00:26:58;95106.94;;;20.57;100.00
6030;BME280;3043;42.682;23.376;2022-07-29T00:29:24;95104.13;;;20.60;100.00
6030;BME280;3043;42.682;23.376;2022-07-29T00:31:49;95109.03;;;20.66;100.00
6030;BME280;3043;42.682;23.376;2022-07-29T00:34:15;95098.13;;;20.72;100.00
6030;BME280;3043;42.682;23.376;2022-07-29T00:36:59;95094.72;;;20.70;100.00
6030;BME280;3043;42.682;23.376;2022-07-29T00:39:25;95096.97;;;20.62;100.00
6030;BME280;3043;42.682;23.376;2022-07-29T00:41:50;95085.53;;;20.49;100.00
6030;BME280;3043;42.682;23.376;2022-07-29T00:44:16;95096.81;;;20.37;100.00
6030;BME280;3043;42.682;23.376;2022-07-29T00:46:41;95100.16;;;20.25;100.00
6030;BME280;3043;42.682;23.376;2022-07-29T00:49:07;95091.47;;;20.09;100.00
6030;BME280;3043;42.682;23.376;2022-07-29T00:51:35;95095.72;;;20.11;100.00
6030;BME280;3043;42.682;23.376;2022-07-29T00:54:02;95093.91;;;20.12;100.00
6030;BME280;3043;42.682;23.376;2022-07-29T00:56:29;95098.09;;;20.16;100.00
6030;BME280;3043;42.682;23.376;2022-07-29T00:58:56;95089.75;;;20.23;100.00
6030;BME280;3043;42.682;23.376;2022-07-29T01:01:22;95099.78;;;20.17;100.00
6030;BME280;3043;42.682;23.376;2022-07-29T01:03:47;95096.38;;;20.15;100.00
6030;BME280;3043;42.682;23.376;2022-07-29T01:06:13;95093.47;;;20.19;100.00
6030;BME280;3043;42.682;23.376;2022-07-29T01:08:40;95087.47;;;20.31;100.00
6030;BME280;3043;42.682;23.376;2022-07-29T01:11:05;95086.75;;;20.29;100.00
6030;BME280;3043;42.682;23.376;2022-07-29T01:13:32;95084.13;;;20.29;100.00
6030;BME280;3043;42.682;23.376;2022-07-29T01:16:03;95086.84;;;20.28;100.00
6030;BME280;3043;42.682;23.376;2022-07-29T01:18:40;95082.03;;;20.34;100.00
6030;BME280;3043;42.682;23.376;2022-07-29T01:29:55;95068.75;;;20.08;100.00
6030;BME280;3043;42.682;23.376;2022-07-29T01:32:25;95072.00;;;20.13;100.00
6030;BME280;3043;42.682;23.376;2022-07-29T01:34:55;95075.38;;;20.15;100.00
6030;BME280;3043;42.682;23.376;2022-07-29T01:37:43;95085.59;;;20.19;100.00
6030;BME280;3043;42.682;23.376;2022-07-29T01:40:31;95071.94;;;19.99;100.00
6030;BME280;3043;42.682;23.376;2022-07-29T01:43:05;95067.25;;;20.04;100.00
6030;BME280;3043;42.682;23.376;2022-07-29T01:45:43;95063.16;;;20.14;100.00
6030;BME280;3043;42.682;23.376;2022-07-29T01:51:04;95055.53;;;20.09;100.00
6030;BME280;3043;42.682;23.376;2022-07-29T01:53:32;95063.00;;;20.01;100.00
6030;BME280;3043;42.682;23.376;2022-07-29T01:56:00;95049.94;;;19.86;100.00
6030;BME280;3043;42.682;23.376;2022-07-29T01:58:28;95050.66;;;19.74;100.00
6030;BME280;3043;42.682;23.376;2022-07-29T02:00:57;95048.41;;;19.68;100.00
6030;BME280;3043;42.682;23.376;2022-07-29T02:03:23;95048.03;;;19.74;100.00
6030;BME280;3043;42.682;23.376;2022-07-29T02:05:52;95035.84;;;19.73;100.00
6030;BME280;3043;42.682;23.376;2022-07-29T02:08:19;95041.13;;;19.73;100.00
6030;BME280;3043;42.682;23.376;2022-07-29T02:10:45;95043.75;;;19.73;100.00
6030;BME280;3043;42.682;23.376;2022-07-29T02:13:13;95032.03;;;19.92;100.00
6030;BME280;3043;42.682;23.376;2022-07-29T02:15:41;95036.44;;;19.92;100.00
6030;BME280;3043;42.682;23.376;2022-07-29T02:18:11;95035.22;;;20.13;100.00
6030;BME280;3043;42.682;23.376;2022-07-29T02:20:39;95039.09;;;20.06;100.00
6030;BME280;3043;42.682;23.376;2022-07-29T02:23:10;95039.28;;;20.03;100.00
6030;BME280;3043;42.682;23.376;2022-07-29T02:25:37;95035.94;;;20.15;100.00
6030;BME280;3043;42.682;23.376;2022-07-29T02:28:03;95040.28;;;20.16;100.00
6030;BME280;3043;42.682;23.376;2022-07-29T02:30:30;95037.38;;;20.20;100.00
6030;BME280;3043;42.682;23.376;2022-07-29T02:32:57;95044.88;;;20.26;100.00
6030;BME280;3043;42.682;23.376;2022-07-29T02:35:24;95046.28;;;20.32;100.00
6030;BME280;3043;42.682;23.376;2022-07-29T02:37:50;95033.88;;;20.34;100.00
6030;BME280;3043;42.682;23.376;2022-07-29T02:40:38;95035.75;;;20.32;100.00
6030;BME280;3043;42.682;23.376;2022-07-29T02:43:05;95027.88;;;20.18;100.00
6030;BME280;3043;42.682;23.376;2022-07-29T02:45:32;95027.13;;;20.16;100.00
6030;BME280;3043;42.682;23.376;2022-07-29T02:47:59;95023.50;;;20.03;100.00
6030;BME280;3043;42.682;23.376;2022-07-29T02:50:33;95023.69;;;20.00;100.00
6030;BME280;3043;42.682;23.376;2022-07-29T02:53:12;95026.97;;;19.89;100.00
6030;BME280;3043;42.682;23.376;2022-07-29T02:58:32;95032.84;;;19.65;100.00
6030;BME280;3043;42.682;23.376;2022-07-29T03:01:01;95026.63;;;19.52;100.00
6030;BME280;3043;42.682;23.376;2022-07-29T03:03:31;95031.28;;;19.47;100.00
6030;BME280;3043;42.682;23.376;2022-07-29T03:05:59;95031.22;;;19.32;100.00
6030;BME280;3043;42.682;23.376;2022-07-29T03:08:26;95021.41;;;19.20;100.00
6030;BME280;3043;42.682;23.376;2022-07-29T03:10:53;95015.78;;;19.12;100.00
6030;BME280;3043;42.682;23.376;2022-07-29T03:13:19;95015.34;;;19.04;100.00
6030;BME280;3043;42.682;23.376;2022-07-29T03:15:45;95014.00;;;18.97;100.00
6030;BME280;3043;42.682;23.376;2022-07-29T03:18:11;95010.63;;;18.95;100.00
6030;BME280;3043;42.682;23.376;2022-07-29T03:20:38;95015.88;;;18.95;100.00
6030;BME280;3043;42.682;23.376;2022-07-29T03:23:04;95015.88;;;18.95;100.00
6030;BME280;3043;42.682;23.376;2022-07-29T03:25:30;95006.22;;;18.96;100.00
6030;BME280;3043;42.682;23.376;2022-07-29T03:27:55;95009.09;;;18.91;100.00
6030;BME280;3043;42.682;23.376;2022-07-29T03:30:22;95016.69;;;18.96;100.00
6030;BME280;3043;42.682;23.376;2022-07-29T03:32:51;95023.66;;;18.97;100.00
6030;BME280;3043;42.682;23.376;2022-07-29T03:35:17;95014.00;;;18.97;100.00
6030;BME280;3043;42.682;23.376;2022-07-29T03:37:43;95018.50;;;18.95;100.00
6030;BME280;3043;42.682;23.376;2022-07-29T03:40:11;95014.94;;;18.96;100.00
6030;BME280;3043;42.682;23.376;2022-07-29T03:42:40;95008.75;;;18.97;100.00
6030;BME280;3043;42.682;23.376;2022-07-29T03:45:10;95018.91;;;19.03;100.00
6030;BME280;3043;42.682;23.376;2022-07-29T03:47:42;95018.91;;;19.03;100.00
6030;BME280;3043;42.682;23.376;2022-07-29T03:50:11;95020.25;;;19.10;100.00
6030;BME280;3043;42.682;23.376;2022-07-29T03:52:38;95018.53;;;19.25;100.00
6030;BME280;3043;42.682;23.376;2022-07-29T03:55:04;95025.97;;;19.32;100.00
6030;BME280;3043;42.682;23.376;2022-07-29T03:57:31;95026.56;;;19.37;100.00
6030;BME280;3043;42.682;23.376;2022-07-29T03:59:57;95031.56;;;19.42;100.00
6030;BME280;3043;42.682;23.376;2022-07-29T04:02:24;95038.47;;;19.43;100.00
6030;BME280;3043;42.682;23.376;2022-07-29T04:04:50;95035.09;;;19.57;100.00
6030;BME280;3043;42.682;23.376;2022-07-29T04:07:16;95041.13;;;19.73;100.00
6030;BME280;3043;42.682;23.376;2022-07-29T04:09:42;95045.72;;;20.13;100.00
6030;BME280;3043;42.682;23.376;2022-07-29T04:12:08;95040.69;;;20.78;100.00
6030;BME280;3043;42.682;23.376;2022-07-29T04:14:34;95046.25;;;21.41;100.00
6030;BME280;3043;42.682;23.376;2022-07-29T04:17:04;95059.91;;;22.24;100.00
6030;BME280;3043;42.682;23.376;2022-07-29T04:19:30;95070.78;;;23.19;100.00
6030;BME280;3043;42.682;23.376;2022-07-29T04:21:56;95080.06;;;24.18;100.00
6030;BME280;3043;42.682;23.376;2022-07-29T04:24:22;95077.88;;;25.02;100.00
6030;BME280;3043;42.682;23.376;2022-07-29T04:26:47;95085.25;;;25.63;100.00
6030;BME280;3043;42.682;23.376;2022-07-29T04:29:13;95082.25;;;25.99;100.00
6030;BME280;3043;42.682;23.376;2022-07-29T04:31:40;95090.59;;;26.27;100.00
6030;BME280;3043;42.682;23.376;2022-07-29T04:34:05;95087.84;;;26.38;100.00
6030;BME280;3043;42.682;23.376;2022-07-29T04:36:31;95079.56;;;26.10;100.00
6030;BME280;3043;42.682;23.376;2022-07-29T04:38:56;95088.56;;;26.19;100.00
6030;BME280;3043;42.682;23.376;2022-07-29T04:41:22;95092.38;;;26.47;100.00
6030;BME280;3043;42.682;23.376;2022-07-29T04:43:48;95102.94;;;26.78;100.00
6030;BME280;3043;42.682;23.376;2022-07-29T04:46:13;95107.59;;;27.16;100.00
6030;BME280;3043;42.682;23.376;2022-07-29T04:48:39;95104.69;;;27.58;100.00
6030;BME280;3043;42.682;23.376;2022-07-29T04:51:04;95111.47;;;27.91;100.00
6030;BME280;3043;42.682;23.376;2022-07-29T04:53:29;95106.84;;;28.12;100.00
6030;BME280;3043;42.682;23.376;2022-07-29T04:55:55;95109.53;;;28.31;100.00
6030;BME280;3043;42.682;23.376;2022-07-29T04:58:20;95115.56;;;28.52;100.00
6030;BME280;3043;42.682;23.376;2022-07-29T05:00:48;95108.66;;;28.78;96.66
6030;BME280;3043;42.682;23.376;2022-07-29T05:03:13;95120.09;;;29.07;96.66
6030;BME280;3043;42.682;23.376;2022-07-29T05:05:39;95113.31;;;29.50;91.54
6030;BME280;3043;42.682;23.376;2022-07-29T05:08:06;95111.88;;;30.27;84.49
6030;BME280;3043;42.682;23.376;2022-07-29T05:10:31;95113.03;;;30.85;77.76
6030;BME280;3043;42.682;23.376;2022-07-29T05:12:57;95115.03;;;30.83;79.68
6030;BME280;3043;42.682;23.376;2022-07-29T05:15:23;95130.56;;;31.64;69.63
6030;BME280;3043;42.682;23.376;2022-07-29T05:17:48;95123.25;;;31.33;71.12
6030;BME280;3043;42.682;23.376;2022-07-29T05:20:13;95125.75;;;32.17;63.87
6030;BME280;3043;42.682;23.376;2022-07-29T05:22:39;95129.81;;;32.45;62.25
6030;BME280;3043;42.682;23.376;2022-07-29T05:25:04;95132.50;;;32.69;58.69
6030;BME280;3043;42.682;23.376;2022-07-29T05:27:30;95136.50;;;32.82;58.02
6030;BME280;3043;42.682;23.376;2022-07-29T05:29:56;95124.50;;;32.94;55.91
6030;BME280;3043;42.682;23.376;2022-07-29T05:32:21;95132.50;;;32.78;58.31
6030;BME280;3043;42.682;23.376;2022-07-29T05:34:47;95122.41;;;33.44;52.29
6030;BME280;3043;42.682;23.376;2022-07-29T05:37:12;95122.13;;;32.99;52.84
6030;BME280;3043;42.682;23.376;2022-07-29T05:39:38;95128.66;;;32.48;56.16
6030;BME280;3043;42.682;23.376;2022-07-29T05:42:08;95116.69;;;32.02;59.25
6030;BME280;3043;42.682;23.376;2022-07-29T05:44:36;95121.47;;;32.40;58.99
6030;BME280;3043;42.682;23.376;2022-07-29T05:47:02;95123.13;;;32.90;55.88
6030;BME280;3043;42.682;23.376;2022-07-29T05:49:28;95125.81;;;32.98;55.89
6030;BME280;3043;42.682;23.376;2022-07-29T05:51:53;95130.97;;;33.39;53.44
6030;BME280;3043;42.682;23.376;2022-07-29T05:54:19;95137.47;;;33.53;54.14
6030;BME280;3043;42.682;23.376;2022-07-29T05:56:44;95132.81;;;34.24;50.61
6030;BME280;3043;42.682;23.376;2022-07-29T05:59:09;95134.25;;;34.35;49.46
6030;BME280;3043;42.682;23.376;2022-07-29T06:01:35;95130.97;;;33.94;49.59
6030;BME280;3043;42.682;23.376;2022-07-29T06:04:05;95140.50;;;33.26;51.27
6030;BME280;3043;42.682;23.376;2022-07-29T06:06:30;95133.53;;;32.77;55.05
6030;BME280;3043;42.682;23.376;2022-07-29T06:08:55;95143.22;;;32.53;55.76
6030;BME280;3043;42.682;23.376;2022-07-29T06:11:21;95138.81;;;32.20;58.56
6030;BME280;3043;42.682;23.376;2022-07-29T06:13:46;95130.09;;;32.26;58.82
6030;BME280;3043;42.682;23.376;2022-07-29T06:16:12;95140.81;;;32.26;59.26
6030;BME280;3043;42.682;23.376;2022-07-29T06:18:38;95147.59;;;32.62;56.87
6030;BME280;3043;42.682;23.376;2022-07-29T06:21:07;95142.38;;;32.77;55.32
6030;BME280;3043;42.682;23.376;2022-07-29T06:23:33;95134.34;;;32.53;57.62
6030;BME280;3043;42.682;23.376;2022-07-29T06:26:02;95134.81;;;33.29;55.59
6030;BME280;3043;42.682;23.376;2022-07-29T06:28:27;95125.75;;;33.92;50.68
6030;BME280;3043;42.682;23.376;2022-07-29T06:30:53;95139.63;;;34.04;50.66
6030;BME280;3043;42.682;23.376;2022-07-29T06:33:18;95139.88;;;33.78;51.90
6030;BME280;3043;42.682;23.376;2022-07-29T06:35:44;95136.22;;;32.93;53.94
6030;BME280;3043;42.682;23.376;2022-07-29T06:38:10;95128.31;;;32.59;56.16
6030;BME280;3043;42.682;23.376;2022-07-29T06:40:36;95122.72;;;32.28;58.52
6030;BME280;3043;42.682;23.376;2022-07-29T06:43:20;95131.16;;;32.82;55.98
6030;BME280;3043;42.682;23.376;2022-07-29T06:45:45;95121.09;;;33.16;56.22
6030;BME280;3043;42.682;23.376;2022-07-29T06:48:11;95115.69;;;33.48;50.88
6030;BME280;3043;42.682;23.376;2022-07-29T06:50:37;95119.44;;;33.15;51.78
6030;BME280;3043;42.682;23.376;2022-07-29T06:53:03;95118.75;;;33.13;53.46
6030;BME280;3043;42.682;23.376;2022-07-29T06:55:28;95115.50;;;33.33;51.68
6030;BME280;3043;42.682;23.376;2022-07-29T06:57:54;95133.84;;;33.38;50.03
6030;BME280;3043;42.682;23.376;2022-07-29T07:00:19;95119.72;;;33.44;49.52
6030;BME280;3043;42.682;23.376;2022-07-29T07:02:45;95123.28;;;33.75;49.23
6030;BME280;3043;42.682;23.376;2022-07-29T07:05:10;95119.19;;;33.87;47.42
6030;BME280;3043;42.682;23.376;2022-07-29T07:07:36;95113.91;;;33.71;47.43
6030;BME280;3043;42.682;23.376;2022-07-29T07:10:01;95111.69;;;33.74;47.80
6030;BME280;3043;42.682;23.376;2022-07-29T07:12:26;95119.31;;;33.55;48.22
6030;BME280;3043;42.682;23.376;2022-07-29T07:14:52;95117.38;;;34.18;46.58
6030;BME280;3043;42.682;23.376;2022-07-29T07:17:17;95116.22;;;34.43;45.98
6030;BME280;3043;42.682;23.376;2022-07-29T07:19:43;95112.97;;;34.25;44.75
6030;BME280;3043;42.682;23.376;2022-07-29T07:22:10;95118.34;;;33.48;46.90
6030;BME280;3043;42.682;23.376;2022-07-29T07:24:35;95118.22;;;33.80;46.23
6030;BME280;3043;42.682;23.376;2022-07-29T07:27:00;95110.81;;;33.82;45.96
6030;BME280;3043;42.682;23.376;2022-07-29T07:29:27;95111.31;;;34.24;45.20
6030;BME280;3043;42.682;23.376;2022-07-29T07:31:52;95117.81;;;33.99;44.88
6030;BME280;3043;42.682;23.376;2022-07-29T07:34:17;95114.50;;;33.97;45.25
6030;BME280;3043;42.682;23.376;2022-07-29T07:36:43;95108.31;;;33.88;45.76
6030;BME280;3043;42.682;23.376;2022-07-29T07:39:08;95098.53;;;33.49;46.01
6030;BME280;3043;42.682;23.376;2022-07-29T07:41:34;95104.03;;;32.77;48.49
6030;BME280;3043;42.682;23.376;2022-07-29T07:43:59;95105.38;;;32.56;50.36
6030;BME280;3043;42.682;23.376;2022-07-29T07:46:25;95106.72;;;32.77;49.44
6030;BME280;3043;42.682;23.376;2022-07-29T07:48:50;95117.06;;;33.20;47.95
6030;BME280;3043;42.682;23.376;2022-07-29T07:51:17;95091.50;;;33.56;46.47
6030;BME280;3043;42.682;23.376;2022-07-29T07:53:43;95106.06;;;33.53;45.84
6030;BME280;3043;42.682;23.376;2022-07-29T07:56:09;95121.09;;;33.78;45.46
6030;BME280;3043;42.682;23.376;2022-07-29T07:58:35;95104.53;;;34.05;44.96
6030;BME280;3043;42.682;23.376;2022-07-29T08:01:01;95108.84;;;34.45;43.13
6030;BME280;3043;42.682;23.376;2022-07-29T08:03:26;95107.00;;;34.83;40.89
6030;BME280;3043;42.682;23.376;2022-07-29T08:05:52;95103.81;;;34.79;41.39
6030;BME280;3043;42.682;23.376;2022-07-29T08:08:19;95103.78;;;34.87;40.97
6030;BME280;3043;42.682;23.376;2022-07-29T08:10:45;95114.56;;;34.87;41.89
6030;BME280;3043;42.682;23.376;2022-07-29T08:13:22;95105.66;;;35.38;40.57
6030;BME280;3043;42.682;23.376;2022-07-29T08:15:48;95117.16;;;36.05;39.12
6030;BME280;3043;42.682;23.376;2022-07-29T08:18:28;95105.75;;;36.24;37.89
6030;BME280;3043;42.682;23.376;2022-07-29T08:20:55;95113.97;;;36.52;36.69
6030;BME280;3043;42.682;23.376;2022-07-29T08:23:21;95106.53;;;36.54;36.54
6030;BME280;3043;42.682;23.376;2022-07-29T08:25:48;95102.56;;;36.00;37.60
6030;BME280;3043;42.682;23.376;2022-07-29T08:28:13;95102.16;;;35.81;38.51
6030;BME280;3043;42.682;23.376;2022-07-29T08:30:39;95093.31;;;35.58;39.15
6030;BME280;3043;42.682;23.376;2022-07-29T08:33:05;95096.06;;;35.79;38.16
6030;BME280;3043;42.682;23.376;2022-07-29T08:35:31;95083.69;;;36.14;38.14
6030;BME280;3043;42.682;23.376;2022-07-29T08:37:56;95094.06;;;36.53;36.44
6030;BME280;3043;42.682;23.376;2022-07-29T08:40:25;95080.97;;;36.29;36.61
6030;BME280;3043;42.682;23.376;2022-07-29T08:42:51;95094.16;;;35.88;36.85
6030;BME280;3043;42.682;23.376;2022-07-29T08:45:16;95104.78;;;36.11;37.04
6030;BME280;3043;42.682;23.376;2022-07-29T08:47:44;95099.16;;;36.27;36.01
6030;BME280;3043;42.682;23.376;2022-07-29T08:50:10;95087.97;;;35.79;36.76
6030;BME280;3043;42.682;23.376;2022-07-29T08:52:40;95090.34;;;35.82;36.82
6030;BME280;3043;42.682;23.376;2022-07-29T08:55:08;95057.06;;;35.17;36.81
6030;BME280;3043;42.682;23.376;2022-07-29T08:57:34;95074.41;;;34.18;38.07
6030;BME280;3043;42.682;23.376;2022-07-29T09:00:01;95083.34;;;33.72;37.84
6030;BME280;3043;42.682;23.376;2022-07-29T09:02:28;95092.19;;;34.19;37.76
6030;BME280;3043;42.682;23.376;2022-07-29T09:04:56;95085.38;;;34.31;37.01
6030;BME280;3043;42.682;23.376;2022-07-29T09:07:22;95084.44;;;34.69;36.14
6030;BME280;3043;42.682;23.376;2022-07-29T09:09:48;95085.69;;;35.18;35.32
6030;BME280;3043;42.682;23.376;2022-07-29T09:12:13;95082.06;;;35.26;34.31
6030;BME280;3043;42.682;23.376;2022-07-29T09:14:41;95069.03;;;35.29;35.13
6030;BME280;3043;42.682;23.376;2022-07-29T09:17:07;95077.31;;;35.13;36.10
6030;BME280;3043;42.682;23.376;2022-07-29T09:19:34;95068.63;;;34.52;36.26
6030;BME280;3043;42.682;23.376;2022-07-29T09:22:03;95073.06;;;34.14;36.84
6030;BME280;3043;42.682;23.376;2022-07-29T09:27:00;95064.34;;;32.48;40.15
6030;BME280;3043;42.682;23.376;2022-07-29T09:29:27;95068.34;;;31.70;41.77
6030;BME280;3043;42.682;23.376;2022-07-29T09:31:53;95067.19;;;31.05;44.99
6030;BME280;3043;42.682;23.376;2022-07-29T09:34:27;95070.81;;;30.71;47.39
6030;BME280;3043;42.682;23.376;2022-07-29T09:36:55;95071.97;;;31.53;47.26
6030;BME280;3043;42.682;23.376;2022-07-29T09:41:59;95067.03;;;33.43;42.15
6030;BME280;3043;42.682;23.376;2022-07-29T09:44:25;95061.34;;;34.07;39.78
6030;BME280;3043;42.682;23.376;2022-07-29T09:47:02;95062.25;;;34.67;37.92
6030;BME280;3043;42.682;23.376;2022-07-29T09:49:32;95066.06;;;34.95;36.25
6030;BME280;3043;42.682;23.376;2022-07-29T09:52:09;95059.09;;;34.86;36.18
6030;BME280;3043;42.682;23.376;2022-07-29T09:54:35;95050.31;;;34.84;36.24
6030;BME280;3043;42.682;23.376;2022-07-29T09:57:05;95051.28;;;34.91;35.94
6030;BME280;3043;42.682;23.376;2022-07-29T09:59:32;95050.00;;;34.50;36.14
6030;BME280;3043;42.682;23.376;2022-07-29T10:01:58;95053.97;;;34.54;36.75
6030;BME280;3043;42.682;23.376;2022-07-29T10:04:24;95045.19;;;34.97;35.93
6030;BME280;3043;42.682;23.376;2022-07-29T10:07:02;95037.13;;;35.26;35.73
6030;BME280;3043;42.682;23.376;2022-07-29T10:09:27;95039.44;;;35.29;35.77
6030;BME280;3043;42.682;23.376;2022-07-29T10:12:12;95032.75;;;35.25;35.21
6030;BME280;3043;42.682;23.376;2022-07-29T10:14:41;95032.38;;;34.99;35.34
6030;BME280;3043;42.682;23.376;2022-07-29T10:17:09;95034.03;;;34.49;35.07
6030;BME280;3043;42.682;23.376;2022-07-29T10:19:36;95027.69;;;34.19;35.94
6030;BME280;3043;42.682;23.376;2022-07-29T10:22:06;95011.84;;;33.48;36.48
6030;BME280;3043;42.682;23.376;2022-07-29T10:24:32;95004.34;;;33.28;37.82
6030;BME280;3043;42.682;23.376;2022-07-29T10:27:02;95008.38;;;33.24;39.42
6030;BME280;3043;42.682;23.376;2022-07-29T10:29:29;95007.81;;;32.98;36.72
6030;BME280;3043;42.682;23.376;2022-07-29T10:35:01;95005.00;;;33.38;36.81
6030;BME280;3043;42.682;23.376;2022-07-29T10:40:45;94998.03;;;33.13;37.41
6030;BME280;3043;42.682;23.376;2022-07-29T10:43:37;94993.59;;;33.28;36.61
6030;BME280;3043;42.682;23.376;2022-07-29T10:46:04;95005.81;;;33.00;37.39
6030;BME280;3043;42.682;23.376;2022-07-29T10:48:29;94992.22;;;32.85;38.54
6030;BME280;3043;42.682;23.376;2022-07-29T10:50:58;94984.41;;;32.59;38.43
6030;BME280;3043;42.682;23.376;2022-07-29T10:53:48;95002.81;;;32.71;38.93
6030;BME280;3043;42.682;23.376;2022-07-29T10:56:29;94986.69;;;32.95;38.68
6030;BME280;3043;42.682;23.376;2022-07-29T10:59:30;94982.25;;;33.18;39.19
6030;BME280;3043;42.682;23.376;2022-07-29T11:01:56;94981.22;;;33.27;38.55
6030;BME280;3043;42.682;23.376;2022-07-29T11:05:02;94980.56;;;33.55;38.02
6030;BME280;3043;42.682;23.376;2022-07-29T11:07:26;94976.53;;;33.82;37.56
6030;BME280;3043;42.682;23.376;2022-07-29T11:15:13;94976.78;;;33.72;38.15
6030;BME280;3043;42.682;23.376;2022-07-29T11:22:59;94965.31;;;32.62;40.59
6030;BME280;3043;42.682;23.376;2022-07-29T11:25:25;94966.66;;;32.34;41.22
6030;BME280;3043;42.682;23.376;2022-07-29T11:27:52;94960.31;;;32.27;40.83
6030;BME280;3043;42.682;23.376;2022-07-29T11:30:19;94952.94;;;32.29;41.57
6030;BME280;3043;42.682;23.376;2022-07-29T11:32:45;94952.94;;;32.29;40.92
6030;BME280;3043;42.682;23.376;2022-07-29T11:35:22;94941.72;;;32.26;42.15
6030;BME280;3043;42.682;23.376;2022-07-29T11:43:57;94956.59;;;32.60;40.56
6030;BME280;3043;42.682;23.376;2022-07-29T11:49:25;94942.91;;;32.23;40.07
6030;BME280;3043;42.682;23.376;2022-07-29T11:51:57;94944.59;;;32.08;40.35
6030;BME280;3043;42.682;23.376;2022-07-29T11:54:34;94939.38;;;32.23;40.81
6030;BME280;3043;42.682;23.376;2022-07-29T11:57:00;94945.06;;;32.12;40.78
6030;BME280;3043;42.682;23.376;2022-07-29T11:59:26;94938.91;;;32.11;40.12
6030;BME280;3043;42.682;23.376;2022-07-29T12:01:55;94942.06;;;31.91;40.82
6030;BME280;3043;42.682;23.376;2022-07-29T12:04:21;94930.84;;;31.71;41.51
6030;BME280;3043;42.682;23.376;2022-07-29T12:06:57;94948.22;;;31.75;41.71
6030;BME280;3043;42.682;23.376;2022-07-29T12:09:23;94926.97;;;31.82;42.14
6030;BME280;3043;42.682;23.376;2022-07-29T12:11:56;94918.16;;;31.97;41.74
6030;BME280;3043;42.682;23.376;2022-07-29T12:14:29;94922.53;;;31.90;42.00
6030;BME280;3043;42.682;23.376;2022-07-29T12:16:56;94927.84;;;31.98;42.24
6030;BME280;3043;42.682;23.376;2022-07-29T12:19:21;94930.69;;;31.97;41.48
6030;BME280;3043;42.682;23.376;2022-07-29T12:21:48;94931.53;;;31.97;41.42
6030;BME280;3043;42.682;23.376;2022-07-29T12:24:14;94925.84;;;32.00;41.53
6030;BME280;3043;42.682;23.376;2022-07-29T12:26:54;94917.47;;;31.79;41.49
6030;BME280;3043;42.682;23.376;2022-07-29T12:29:19;94924.81;;;31.77;41.81
6030;BME280;3043;42.682;23.376;2022-07-29T12:31:45;94904.06;;;31.71;40.83
6030;BME280;3043;42.682;23.376;2022-07-29T12:34:13;94912.75;;;31.57;41.56
6030;BME280;3043;42.682;23.376;2022-07-29T12:36:41;94911.41;;;31.53;41.66
6030;BME280;3043;42.682;23.376;2022-07-29T12:39:07;94912.94;;;31.64;42.16
6030;BME280;3043;42.682;23.376;2022-07-29T12:41:34;94914.94;;;31.78;42.31
6030;BME280;3043;42.682;23.376;2022-07-29T12:43:59;94918.28;;;31.80;40.48
6030;BME280;3043;42.682;23.376;2022-07-29T12:46:25;94914.50;;;31.90;39.46
6030;BME280;3043;42.682;23.376;2022-07-29T12:48:52;94915.13;;;32.00;40.33
6030;BME280;3043;42.682;23.376;2022-07-29T12:51:36;94904.09;;;32.11;40.12
6030;BME280;3043;42.682;23.376;2022-07-29T12:54:10;94927.50;;;32.17;40.16
6030;BME280;3043;42.682;23.376;2022-07-29T12:56:40;94909.78;;;32.08;40.72
6030;BME280;3043;42.682;23.376;2022-07-29T13:01:40;94898.00;;;32.25;40.66
6030;BME280;3043;42.682;23.376;2022-07-29T13:04:06;94881.94;;;32.41;40.33
6030;BME280;3043;42.682;23.376;2022-07-29T13:09:13;94908.00;;;32.63;39.24
6030;BME280;3043;42.682;23.376;2022-07-29T13:11:42;94890.31;;;32.46;38.95
6030;BME280;3043;42.682;23.376;2022-07-29T13:14:10;94881.59;;;32.44;39.35
6030;BME280;3043;42.682;23.376;2022-07-29T13:16:40;94881.25;;;32.47;39.81
6030;BME280;3043;42.682;23.376;2022-07-29T13:19:33;94877.91;;;32.45;39.60
6030;BME280;3043;42.682;23.376;2022-07-29T13:21:59;94881.25;;;32.31;40.72
6030;BME280;3043;42.682;23.376;2022-07-29T13:24:24;94882.94;;;32.32;39.57
6030;BME280;3043;42.682;23.376;2022-07-29T13:26:49;94870.88;;;32.28;39.83
6030;BME280;3043;42.682;23.376;2022-07-29T13:29:17;94871.72;;;32.29;40.75
6030;BME280;3043;42.682;23.376;2022-07-29T13:31:42;94873.22;;;32.47;41.32
6030;BME280;3043;42.682;23.376;2022-07-29T13:34:08;94866.50;;;32.51;41.42
6030;BME280;3043;42.682;23.376;2022-07-29T13:36:33;94873.56;;;32.44;40.44
6030;BME280;3043;42.682;23.376;2022-07-29T13:38:59;94871.06;;;32.35;39.78
6030;BME280;3043;42.682;23.376;2022-07-29T13:41:26;94867.22;;;32.29;39.63
6030;BME280;3043;42.682;23.376;2022-07-29T13:43:51;94867.41;;;32.20;41.04
6030;BME280;3043;42.682;23.376;2022-07-29T13:46:17;94866.88;;;32.16;39.85
6030;BME280;3043;42.682;23.376;2022-07-29T13:48:43;94864.75;;;32.04;40.86
6030;BME280;3043;42.682;23.376;2022-07-29T13:51:08;94848.88;;;32.02;41.45
6030;BME280;3043;42.682;23.376;2022-07-29T13:53:34;94861.25;;;32.03;41.40
6030;BME280;3043;42.682;23.376;2022-07-29T13:55:59;94859.88;;;32.15;41.54
6030;BME280;3043;42.682;23.376;2022-07-29T13:58:25;94864.03;;;32.18;42.02
6030;BME280;3043;42.682;23.376;2022-07-29T14:00:50;94856.53;;;32.13;41.31